createdAt,value
2018-07-25T00:01:59.644Z,6.30
2018-07-25T00:04:28.244Z,6.90
2018-07-25T00:06:56.095Z,6.37
2018-07-25T00:09:23.965Z,6.10
2018-07-25T00:11:52.470Z,6.53
2018-07-25T00:14:21.283Z,6.93
2018-07-25T00:16:49.123Z,7.17
2018-07-25T00:19:16.927Z,6.30
2018-07-25T00:21:44.702Z,6.30
2018-07-25T00:24:12.635Z,6.17
2018-07-25T00:26:40.536Z,6.37
2018-07-25T00:29:08.383Z,5.97
2018-07-25T00:31:36.200Z,6.83
2018-07-25T00:34:04.585Z,6.10
2018-07-25T00:36:32.610Z,6.13
2018-07-25T00:39:00.382Z,6.90
2018-07-25T00:41:28.196Z,6.33
2018-07-25T00:43:56.162Z,6.70
2018-07-25T00:46:24.166Z,6.67
2018-07-25T00:48:52.102Z,6.63
2018-07-25T00:51:19.946Z,5.50
2018-07-25T00:53:47.826Z,7.50
2018-07-25T00:56:15.800Z,6.27
2018-07-25T00:58:44.997Z,5.73
2018-07-25T01:01:12.925Z,6.33
2018-07-25T01:03:40.801Z,6.60
2018-07-25T01:06:08.564Z,6.30
2018-07-25T01:08:36.405Z,6.60
2018-07-25T01:11:04.129Z,6.13
2018-07-25T01:13:32.031Z,5.73
2018-07-25T01:16:00.183Z,6.03
2018-07-25T01:18:27.967Z,6.00
2018-07-25T01:20:55.826Z,6.53
2018-07-25T01:23:24.271Z,6.27
2018-07-25T01:25:52.918Z,6.10
2018-07-25T01:28:21.915Z,6.00
2018-07-25T01:30:49.863Z,6.70
2018-07-25T01:33:17.775Z,7.10
2018-07-25T01:35:46.052Z,6.57
2018-07-25T01:38:14.362Z,6.43
2018-07-25T01:40:42.445Z,6.20
2018-07-25T01:43:10.964Z,6.33
2018-07-25T01:45:38.750Z,6.70
2018-07-25T01:48:06.855Z,5.77
2018-07-25T01:50:34.671Z,6.17
2018-07-25T01:53:03.205Z,6.37
2018-07-25T01:55:31.089Z,6.40
2018-07-25T01:57:59.105Z,6.40
2018-07-25T02:00:28.262Z,6.03
2018-07-25T02:02:56.280Z,6.53
2018-07-25T02:05:25.582Z,7.17
2018-07-25T02:07:53.348Z,6.77
2018-07-25T02:10:21.243Z,6.30
2018-07-25T02:12:49.705Z,5.53
2018-07-25T02:15:17.694Z,6.07
2018-07-25T02:17:46.830Z,7.13
2018-07-25T02:20:14.882Z,6.40
2018-07-25T02:22:43.917Z,7.27
2018-07-25T02:25:11.613Z,7.23
2018-07-25T02:27:39.656Z,6.50
2018-07-25T02:30:07.904Z,6.80
2018-07-25T02:32:36.520Z,7.77
2018-07-25T02:35:04.498Z,8.03
2018-07-25T02:37:33.382Z,7.27
2018-07-25T02:40:00.930Z,6.57
2018-07-25T02:42:28.478Z,7.50
2018-07-25T02:44:56.067Z,7.33
2018-07-25T02:47:23.758Z,6.67
2018-07-25T02:49:51.373Z,7.57
2018-07-25T02:52:18.914Z,6.80
2018-07-25T02:54:46.566Z,7.30
2018-07-25T02:57:14.094Z,6.57
2018-07-25T02:59:41.917Z,6.20
2018-07-25T03:02:09.886Z,6.87
2018-07-25T03:04:38.439Z,7.00
2018-07-25T03:07:06.341Z,7.27
2018-07-25T03:09:35.003Z,8.37
2018-07-25T03:12:02.862Z,8.17
2018-07-25T03:14:30.668Z,7.30
2018-07-25T03:16:59.017Z,7.27
2018-07-25T03:19:26.634Z,6.80
2018-07-25T03:21:55.216Z,6.63
2018-07-25T03:24:23.179Z,7.50
2018-07-25T03:26:51.236Z,7.87
2018-07-25T03:29:19.185Z,7.63
2018-07-25T03:31:46.745Z,7.10
2018-07-25T03:34:14.386Z,6.80
2018-07-25T03:36:41.934Z,7.17
2018-07-25T03:39:09.596Z,7.33
2018-07-25T03:41:37.286Z,7.50
2018-07-25T03:44:04.854Z,7.47
2018-07-25T03:46:32.661Z,7.13
2018-07-25T03:49:00.253Z,6.83
2018-07-25T03:51:27.792Z,7.50
2018-07-25T03:53:55.830Z,7.10
2018-07-25T03:56:24.053Z,6.90
2018-07-25T03:58:52.063Z,7.13
2018-07-25T04:01:20.059Z,6.43
2018-07-25T04:03:47.694Z,6.50
2018-07-25T04:06:15.557Z,7.97
2018-07-25T04:08:43.998Z,6.67
2018-07-25T04:11:12.519Z,7.00
2018-07-25T04:13:40.498Z,7.20
2018-07-25T04:16:09.164Z,6.93
2018-07-25T04:18:37.104Z,6.50
2018-07-25T04:21:04.899Z,7.47
2018-07-25T04:23:32.760Z,8.83
2018-07-25T04:26:00.684Z,7.90
2018-07-25T04:28:28.702Z,7.27
2018-07-25T04:30:56.696Z,7.80
2018-07-25T04:33:25.206Z,8.23
2018-07-25T04:35:53.141Z,7.13
2018-07-25T04:38:21.229Z,6.80
2018-07-25T04:40:50.305Z,7.00
2018-07-25T04:43:18.273Z,9.20
2018-07-25T04:45:46.058Z,8.43
2018-07-25T04:48:13.926Z,7.53
2018-07-25T04:50:42.745Z,8.47
2018-07-25T04:53:10.459Z,7.73
2018-07-25T04:55:38.468Z,8.00
2018-07-25T04:58:07.647Z,8.07
2018-07-25T05:00:35.410Z,7.00
2018-07-25T05:03:04.331Z,7.47
2018-07-25T05:05:32.717Z,8.10
2018-07-25T05:08:00.469Z,6.90
2018-07-25T05:10:28.090Z,7.30
2018-07-25T05:12:55.624Z,6.73
2018-07-25T05:15:23.295Z,7.23
2018-07-25T05:17:51.166Z,7.07
2018-07-25T05:20:19.102Z,7.87
2018-07-25T05:22:48.011Z,7.00
2018-07-25T05:25:15.794Z,7.30
2018-07-25T05:27:44.897Z,7.30
2018-07-25T05:30:12.949Z,6.97
2018-07-25T05:32:40.891Z,6.67
2018-07-25T05:35:09.161Z,5.90
2018-07-25T05:37:37.202Z,6.10
2018-07-25T05:40:05.034Z,6.20
2018-07-25T05:42:32.834Z,6.57
2018-07-25T05:45:00.702Z,5.93
2018-07-25T05:47:29.053Z,5.93
2018-07-25T05:49:57.091Z,6.10
2018-07-25T05:52:25.012Z,6.13
2018-07-25T05:54:53.024Z,5.87
2018-07-25T05:57:21.559Z,7.30
2018-07-25T05:59:49.605Z,7.60
2018-07-25T06:02:18.153Z,7.80
2018-07-25T06:04:45.998Z,8.80
2018-07-25T06:07:13.829Z,8.67
2018-07-25T06:09:41.650Z,8.20
2018-07-25T06:12:10.753Z,8.03
2018-07-25T06:14:38.667Z,8.97
2018-07-25T06:17:06.618Z,7.87
2018-07-25T06:19:35.213Z,8.10
2018-07-25T06:22:03.042Z,7.17
2018-07-25T06:24:31.324Z,7.50
2018-07-25T06:26:59.158Z,6.63
2018-07-25T06:29:27.704Z,6.97
2018-07-25T06:31:55.688Z,6.10
2018-07-25T06:34:24.601Z,5.90
2018-07-25T06:36:53.330Z,6.20
2018-07-25T06:39:21.790Z,5.50
2018-07-25T06:41:50.342Z,4.33
2018-07-25T06:44:18.319Z,4.83
2018-07-25T06:46:46.370Z,5.17
2018-07-25T06:49:14.299Z,4.60
2018-07-25T06:51:42.118Z,4.90
2018-07-25T06:54:09.742Z,4.67
2018-07-25T06:56:37.361Z,4.30
2018-07-25T06:59:04.970Z,5.00
2018-07-25T07:01:32.594Z,4.87
2018-07-25T07:04:00.268Z,4.50
2018-07-25T07:06:27.858Z,4.97
2018-07-25T07:08:55.781Z,4.90
2018-07-25T07:11:23.410Z,4.30
2018-07-25T07:13:51.326Z,4.57
2018-07-25T07:16:18.937Z,3.97
2018-07-25T07:18:46.527Z,3.93
2018-07-25T07:21:14.113Z,4.43
2018-07-25T07:23:41.691Z,3.80
2018-07-25T07:26:09.270Z,3.30
2018-07-25T07:28:36.923Z,3.50
2018-07-25T07:31:04.528Z,3.60
2018-07-25T07:33:32.669Z,4.13
2018-07-25T07:36:00.287Z,3.30
2018-07-25T07:38:28.058Z,3.60
2018-07-25T07:40:55.689Z,4.07
2018-07-25T07:43:23.277Z,3.80
2018-07-25T07:45:50.870Z,3.60
2018-07-25T07:48:18.479Z,4.10
2018-07-25T07:50:46.060Z,4.40
2018-07-25T07:53:13.584Z,4.10
2018-07-25T07:55:41.253Z,4.83
2018-07-25T07:58:08.858Z,4.67
2018-07-25T08:00:36.394Z,4.20
2018-07-25T08:03:04.019Z,4.17
2018-07-25T08:05:31.594Z,3.80
2018-07-25T08:07:59.254Z,2.30
2018-07-25T08:10:26.804Z,2.93
2018-07-25T08:12:54.366Z,2.53
2018-07-25T08:15:22.018Z,2.70
2018-07-25T08:17:49.640Z,2.90
2018-07-25T08:20:18.235Z,2.83
2018-07-25T08:22:46.320Z,2.90
2018-07-25T08:25:14.213Z,2.60
2018-07-25T08:27:42.827Z,2.57
2018-07-25T08:30:11.137Z,4.13
2018-07-25T08:32:38.966Z,4.17
2018-07-25T08:35:07.350Z,4.00
2018-07-25T08:37:35.382Z,4.03
2018-07-25T08:40:02.991Z,4.23
2018-07-25T08:42:30.982Z,3.63
2018-07-25T08:44:58.932Z,3.80
2018-07-25T08:47:27.577Z,3.90
2018-07-25T08:49:55.469Z,4.23
2018-07-25T08:52:23.724Z,3.80
2018-07-25T08:54:51.786Z,3.70
2018-07-25T08:57:20.033Z,3.37
2018-07-25T08:59:48.656Z,4.03
2018-07-25T09:02:16.639Z,4.47
2018-07-25T09:04:45.198Z,4.17
2018-07-25T09:07:14.159Z,3.87
2018-07-25T09:09:42.098Z,3.77
2018-07-25T09:12:10.414Z,3.93
2018-07-25T09:14:38.202Z,3.60
2018-07-25T09:17:06.281Z,3.30
2018-07-25T09:19:34.560Z,3.70
2018-07-25T09:22:02.407Z,4.70
2018-07-25T09:24:30.233Z,3.40
2018-07-25T09:26:58.229Z,3.77
2018-07-25T09:29:26.078Z,4.10
2018-07-25T09:31:54.098Z,4.10
2018-07-25T09:34:22.158Z,3.77
2018-07-25T09:36:49.995Z,3.97
2018-07-25T09:39:18.160Z,3.77
2018-07-25T09:41:47.186Z,3.70
2018-07-25T09:44:15.580Z,3.80
2018-07-25T09:46:43.509Z,3.87
2018-07-25T09:49:12.716Z,3.90
2018-07-25T09:51:41.581Z,3.90
2018-07-25T09:54:09.599Z,4.30
2018-07-25T09:56:37.607Z,4.30
2018-07-25T09:59:06.270Z,3.97
2018-07-25T10:01:35.638Z,4.77
2018-07-25T10:04:03.659Z,4.30
2018-07-25T10:06:31.654Z,4.37
2018-07-25T10:09:00.194Z,3.63
2018-07-25T10:11:28.210Z,4.20
2018-07-25T10:13:56.201Z,4.07
2018-07-25T10:16:24.764Z,4.20
2018-07-25T10:18:53.367Z,3.53
2018-07-25T10:21:22.239Z,3.73
2018-07-25T10:23:50.608Z,4.07
2018-07-25T10:26:18.586Z,3.83
2018-07-25T10:28:46.456Z,4.57
2018-07-25T10:31:14.246Z,3.97
2018-07-25T10:33:42.814Z,3.70
2018-07-25T10:36:10.779Z,4.33
2018-07-25T10:38:39.527Z,3.80
2018-07-25T10:41:07.195Z,3.70
2018-07-25T10:43:34.999Z,4.50
2018-07-25T10:46:03.745Z,4.13
2018-07-25T10:48:32.363Z,3.70
2018-07-25T10:50:59.978Z,3.80
2018-07-25T10:53:27.707Z,3.97
2018-07-25T10:55:55.850Z,4.10
2018-07-25T10:58:23.629Z,4.00
2018-07-25T11:00:52.098Z,4.20
2018-07-25T11:03:19.900Z,3.30
2018-07-25T11:05:48.181Z,4.03
2018-07-25T11:08:16.010Z,3.53
2018-07-25T11:10:43.975Z,4.43
2018-07-25T11:13:11.782Z,3.80
2018-07-25T11:15:40.626Z,4.13
2018-07-25T11:18:08.228Z,4.53
2018-07-25T11:20:36.486Z,4.40
2018-07-25T11:23:04.416Z,4.33
2018-07-25T11:25:32.413Z,4.00
2018-07-25T11:28:00.608Z,3.63
2018-07-25T11:30:29.973Z,4.10
2018-07-25T11:32:58.152Z,4.00
2018-07-25T11:35:25.809Z,3.70
2018-07-25T11:37:53.630Z,3.60
2018-07-25T11:40:21.851Z,3.90
2018-07-25T11:42:49.430Z,4.00
2018-07-25T11:45:17.011Z,4.10
2018-07-25T11:47:44.654Z,4.40
2018-07-25T11:50:12.294Z,4.20
2018-07-25T11:52:40.587Z,4.53
2018-07-25T11:55:08.891Z,3.90
2018-07-25T11:57:36.472Z,3.90
2018-07-25T12:00:04.210Z,3.80
2018-07-25T12:02:31.805Z,3.43
2018-07-25T12:04:59.378Z,3.37
2018-07-25T12:07:27.006Z,3.70
2018-07-25T12:09:54.710Z,3.40
2018-07-25T12:12:22.325Z,3.00
2018-07-25T12:14:49.942Z,3.53
2018-07-25T12:17:17.526Z,3.27
2018-07-25T12:19:45.101Z,3.77
2018-07-25T12:22:12.700Z,2.90
2018-07-25T12:24:41.379Z,3.30
2018-07-25T12:27:10.035Z,3.37
2018-07-25T12:29:38.891Z,3.40
2018-07-25T12:32:06.491Z,3.67
2018-07-25T12:34:34.075Z,3.83
2018-07-25T12:37:01.722Z,3.60
2018-07-25T12:39:30.739Z,3.00
2018-07-25T12:41:58.705Z,3.80
2018-07-25T12:44:27.729Z,3.33
2018-07-25T12:46:55.728Z,3.30
2018-07-25T12:49:23.625Z,3.30
2018-07-25T12:51:51.639Z,3.77
2018-07-25T12:54:19.591Z,3.87
2018-07-25T12:56:48.380Z,3.60
2018-07-25T12:59:17.111Z,3.90
2018-07-25T13:01:44.932Z,7.00
2018-07-25T13:04:13.285Z,4.83
2018-07-25T13:06:42.078Z,3.50
2018-07-25T13:09:11.371Z,3.60
2018-07-25T13:11:40.012Z,4.57
2018-07-25T13:14:08.129Z,4.50
2018-07-25T13:16:37.418Z,5.30
2018-07-25T13:19:05.366Z,3.80
2018-07-25T13:21:34.006Z,3.43
2018-07-25T13:24:01.897Z,3.67
2018-07-25T13:26:29.769Z,4.60
2018-07-25T13:28:57.598Z,3.73
2018-07-25T13:31:25.799Z,3.10
2018-07-25T13:33:53.738Z,3.87
2018-07-25T13:36:22.335Z,3.33
2018-07-25T13:38:50.242Z,3.67
2018-07-25T13:41:18.093Z,3.40
2018-07-25T13:43:46.347Z,4.40
2018-07-25T13:46:15.139Z,4.37
2018-07-25T13:48:44.034Z,3.70
2018-07-25T13:51:12.206Z,3.93
2018-07-25T13:53:40.829Z,3.90
2018-07-25T13:56:08.515Z,3.80
2018-07-25T13:58:36.179Z,3.67
2018-07-25T14:01:04.754Z,3.60
2018-07-25T14:03:32.841Z,4.03
2018-07-25T14:06:00.729Z,3.50
2018-07-25T14:08:28.686Z,3.80
2018-07-25T14:10:57.358Z,3.90
2018-07-25T14:13:25.202Z,4.03
2018-07-25T14:15:53.203Z,3.80
2018-07-25T14:18:21.781Z,3.80
2018-07-25T14:20:49.770Z,3.80
2018-07-25T14:23:17.778Z,3.70
2018-07-25T14:25:45.673Z,3.90
2018-07-25T14:28:13.846Z,4.37
2018-07-25T14:30:42.330Z,4.40
2018-07-25T14:33:10.204Z,4.40
2018-07-25T14:35:38.515Z,3.87
2018-07-25T14:38:06.402Z,4.50
2018-07-25T14:40:35.050Z,4.63
2018-07-25T14:43:03.629Z,4.60
2018-07-25T14:45:31.618Z,4.60
2018-07-25T14:48:00.256Z,4.07
2018-07-25T14:50:28.216Z,4.80
2018-07-25T14:52:57.433Z,4.50
2018-07-25T14:55:25.336Z,4.87
2018-07-25T14:57:54.241Z,4.40
2018-07-25T15:00:22.575Z,4.57
2018-07-25T15:02:51.954Z,4.80
2018-07-25T15:05:20.394Z,5.70
2018-07-25T15:07:48.201Z,4.47
2018-07-25T15:10:16.387Z,5.63
2018-07-25T15:13:01.003Z,4.60
2018-07-25T15:15:29.632Z,5.40
2018-07-25T15:17:57.462Z,4.73
2018-07-25T15:20:25.335Z,5.23
2018-07-25T15:22:54.924Z,5.30
2018-07-25T15:25:22.891Z,5.30
2018-07-25T15:27:50.543Z,5.60
2018-07-25T15:30:18.451Z,4.63
2018-07-25T15:32:46.411Z,5.40
2018-07-25T15:35:14.477Z,4.70
2018-07-25T15:37:42.414Z,5.67
2018-07-25T15:40:10.458Z,4.80
2018-07-25T15:42:38.373Z,5.13
2018-07-25T15:45:06.675Z,6.00
2018-07-25T15:47:35.788Z,6.60
2018-07-25T15:50:03.769Z,5.63
2018-07-25T15:52:31.834Z,6.20
2018-07-25T15:54:59.650Z,5.50
2018-07-25T15:57:27.458Z,5.50
2018-07-25T15:59:56.627Z,5.93
2018-07-25T16:02:24.496Z,5.90
2018-07-25T16:04:52.317Z,6.30
2018-07-25T16:07:20.231Z,6.20
2018-07-25T16:09:48.163Z,7.00
2018-07-25T16:12:16.761Z,5.77
2018-07-25T16:14:44.730Z,7.00
2018-07-25T16:17:12.815Z,6.43
2018-07-25T16:19:41.393Z,6.23
2018-07-25T16:22:09.299Z,7.07
2018-07-25T16:24:37.192Z,6.50
2018-07-25T16:27:04.893Z,6.60
2018-07-25T16:29:32.850Z,6.70
2018-07-25T16:32:00.917Z,6.20
2018-07-25T16:34:29.427Z,6.90
2018-07-25T16:36:57.406Z,7.50
2018-07-25T16:39:25.357Z,7.77
2018-07-25T16:41:53.375Z,6.60
2018-07-25T16:44:22.029Z,7.80
2018-07-25T16:46:50.650Z,6.30
2018-07-25T16:49:18.526Z,6.47
2018-07-25T16:51:46.463Z,6.37
2018-07-25T16:54:14.570Z,6.70
2018-07-25T16:56:42.561Z,6.33
2018-07-25T16:59:10.554Z,6.83
2018-07-25T17:01:38.698Z,7.00
2018-07-25T17:04:07.373Z,7.07
2018-07-25T17:06:35.061Z,6.70
2018-07-25T17:09:03.719Z,6.83
2018-07-25T17:11:33.162Z,6.43
2018-07-25T17:14:01.731Z,6.60
2018-07-25T17:16:29.686Z,6.30
2018-07-25T17:18:57.707Z,5.97
2018-07-25T17:21:25.554Z,6.30
2018-07-25T17:23:54.308Z,6.03
2018-07-25T17:26:22.822Z,6.60
2018-07-25T17:28:51.378Z,6.50
2018-07-25T17:31:20.338Z,6.80
2018-07-25T17:33:48.876Z,5.77
2018-07-25T17:36:16.871Z,6.40
2018-07-25T17:38:45.513Z,6.60
2018-07-25T17:41:14.350Z,7.10
2018-07-25T17:43:42.362Z,7.33
2018-07-25T17:46:10.328Z,6.13
2018-07-25T17:48:38.122Z,6.13
2018-07-25T17:51:05.908Z,7.10
2018-07-25T17:53:33.988Z,6.70
2018-07-25T17:56:01.851Z,6.70
2018-07-25T17:58:29.750Z,6.70
2018-07-25T18:00:58.448Z,7.57
2018-07-25T18:03:26.960Z,7.77
2018-07-25T18:05:54.710Z,8.80
2018-07-25T18:08:22.355Z,10.80
2018-07-25T18:10:50.347Z,7.37
2018-07-25T18:13:24.313Z,6.47
2018-07-25T18:15:53.518Z,7.43
2018-07-25T18:18:21.622Z,7.17
2018-07-25T18:20:49.779Z,7.30
2018-07-25T18:23:17.585Z,7.00
2018-07-25T18:25:46.401Z,6.80
2018-07-25T18:28:15.174Z,7.70
2018-07-25T18:30:44.168Z,6.77
2018-07-25T18:33:12.237Z,6.70
2018-07-25T18:35:40.227Z,7.07
2018-07-25T18:38:08.249Z,7.20
2018-07-25T18:40:36.194Z,7.00
2018-07-25T18:43:04.054Z,6.50
2018-07-25T18:45:32.023Z,7.00
2018-07-25T18:48:00.155Z,6.70
2018-07-25T18:50:28.716Z,6.80
2018-07-25T18:52:57.259Z,7.00
2018-07-25T18:55:25.140Z,7.60
2018-07-25T18:57:52.914Z,7.63
2018-07-25T19:00:20.773Z,6.93
2018-07-25T19:02:48.448Z,7.20
2018-07-25T19:05:16.146Z,7.07
2018-07-25T19:07:44.548Z,7.10
2018-07-25T19:10:13.083Z,7.23
2018-07-25T19:12:41.097Z,7.50
2018-07-25T19:15:45.519Z,7.10
2018-07-25T19:18:13.198Z,7.50
2018-07-25T19:20:40.980Z,7.27
2018-07-25T19:23:08.613Z,8.40
2018-07-25T19:25:36.299Z,8.80
2018-07-25T19:28:03.833Z,8.33
2018-07-25T19:30:31.621Z,7.50
2018-07-25T19:33:00.052Z,8.40
2018-07-25T19:35:29.091Z,8.83
2018-07-25T19:37:58.554Z,8.60
2018-07-25T19:40:26.564Z,8.37
2018-07-25T19:42:54.449Z,8.50
2018-07-25T19:45:22.898Z,8.33
2018-07-25T19:47:50.715Z,8.43
2018-07-25T19:50:19.061Z,8.40
2018-07-25T19:52:47.557Z,8.03
2018-07-25T19:55:15.974Z,9.13
2018-07-25T19:57:43.749Z,8.70
2018-07-25T20:00:16.382Z,9.47
2018-07-25T20:02:40.714Z,9.37
2018-07-25T20:05:09.358Z,9.07
2018-07-25T20:07:37.308Z,8.60
2018-07-25T20:10:06.000Z,11.27
2018-07-25T20:12:35.077Z,10.10
2018-07-25T20:15:07.901Z,10.10
2018-07-25T20:17:36.462Z,9.10
2018-07-25T20:20:04.529Z,8.93
2018-07-25T20:22:33.182Z,9.70
2018-07-25T20:25:01.154Z,8.93
2018-07-25T20:27:29.139Z,9.17
2018-07-25T20:29:57.011Z,9.70
2018-07-25T20:32:26.250Z,9.70
2018-07-25T20:34:54.260Z,8.70
2018-07-25T20:37:22.153Z,10.33
2018-07-25T20:39:49.882Z,9.50
2018-07-25T20:42:18.900Z,9.20
2018-07-25T20:44:46.669Z,8.97
2018-07-25T20:47:14.765Z,9.43
2018-07-25T20:49:43.294Z,8.90
2018-07-25T20:52:12.347Z,9.57
2018-07-25T20:54:40.079Z,9.70
2018-07-25T20:57:08.485Z,9.43
2018-07-25T20:59:36.542Z,8.73
2018-07-25T21:02:04.397Z,9.77
2018-07-25T21:04:32.327Z,8.93
2018-07-25T21:07:00.087Z,8.87
2018-07-25T21:09:28.568Z,9.53
2018-07-25T21:11:56.538Z,9.40
2018-07-25T21:14:24.322Z,10.40
2018-07-25T21:16:52.799Z,10.10
2018-07-25T21:19:21.205Z,9.47
2018-07-25T21:21:49.112Z,10.27
2018-07-25T21:24:17.148Z,9.60
2018-07-25T21:26:45.088Z,9.17
2018-07-25T21:29:13.105Z,9.60
2018-07-25T21:31:41.086Z,10.47
2018-07-25T21:34:09.343Z,10.17
2018-07-25T21:36:37.187Z,10.90
2018-07-25T21:39:07.667Z,10.70
2018-07-25T21:41:35.726Z,11.77
2018-07-25T21:44:05.033Z,9.80
2018-07-25T21:46:33.561Z,10.00
2018-07-25T21:49:02.112Z,10.90
2018-07-25T21:51:30.057Z,11.03
2018-07-25T21:53:58.872Z,10.70
2018-07-25T21:56:27.060Z,11.63
2018-07-25T21:58:54.829Z,11.20
2018-07-25T22:01:22.900Z,10.37
2018-07-25T22:03:50.775Z,10.30
2018-07-25T22:06:19.949Z,10.50
2018-07-25T22:08:47.628Z,10.33
2018-07-25T22:11:15.598Z,10.40
2018-07-25T22:13:49.022Z,10.00
2018-07-25T22:16:17.534Z,10.47
2018-07-25T22:18:46.109Z,9.40
2018-07-25T22:21:14.286Z,10.70
2018-07-25T22:23:42.558Z,10.77
2018-07-25T22:26:10.899Z,12.53
2018-07-25T22:28:38.953Z,10.27
2018-07-25T22:31:08.053Z,11.83
2018-07-25T22:33:35.626Z,10.87
2018-07-25T22:36:03.222Z,10.60
2018-07-25T22:38:30.845Z,10.90
2018-07-25T22:40:58.408Z,9.53
2018-07-25T22:43:26.045Z,11.53
2018-07-25T22:45:53.630Z,10.60
2018-07-25T22:48:21.168Z,10.20
2018-07-25T22:50:48.809Z,9.87
2018-07-25T22:53:16.369Z,10.50
2018-07-25T22:55:43.990Z,9.17
2018-07-25T22:58:11.619Z,10.07
2018-07-25T23:00:39.198Z,10.70
2018-07-25T23:03:06.853Z,10.77
2018-07-25T23:05:34.498Z,10.70
2018-07-25T23:08:02.057Z,10.70
2018-07-25T23:10:29.624Z,11.40
2018-07-25T23:12:57.174Z,12.40
2018-07-25T23:15:24.698Z,11.50
2018-07-25T23:17:52.577Z,11.03
2018-07-25T23:20:20.407Z,10.73
2018-07-25T23:22:55.105Z,11.37
2018-07-25T23:25:22.994Z,12.00
2018-07-25T23:27:50.729Z,11.40
2018-07-25T23:30:18.671Z,11.50
2018-07-25T23:32:46.213Z,12.33
2018-07-25T23:35:13.764Z,11.40
2018-07-25T23:37:41.327Z,12.03
2018-07-25T23:40:08.954Z,11.17
2018-07-25T23:42:36.474Z,12.33
2018-07-25T23:45:04.582Z,11.13
2018-07-25T23:47:33.129Z,12.17
2018-07-25T23:50:01.138Z,11.63
2018-07-25T23:52:29.782Z,11.23
2018-07-25T23:54:57.750Z,11.33
2018-07-25T23:57:26.276Z,11.63
2018-07-25T23:59:54.118Z,10.97
